sensor_id;sensor_type;location;lat;lon;timestamp;temperature;humidity
8820;DHT22;4446;50.876;4.736;2024-03-22T00:00:37;12.20;99.90
8820;DHT22;4446;50.876;4.736;2024-03-22T00:03:04;12.20;99.90
8820;DHT22;4446;50.876;4.736;2024-03-22T00:05:30;12.10;99.90
8820;DHT22;4446;50.876;4.736;2024-03-22T00:07:57;12.20;99.90
8820;DHT22;4446;50.876;4.736;2024-03-22T00:10:23;12.20;99.90
8820;DHT22;4446;50.876;4.736;2024-03-22T00:12:50;12.20;99.90
8820;DHT22;4446;50.876;4.736;2024-03-22T00:15:18;12.20;99.90
8820;DHT22;4446;50.876;4.736;2024-03-22T00:17:45;12.10;99.90
8820;DHT22;4446;50.876;4.736;2024-03-22T00:20:11;12.20;99.90
8820;DHT22;4446;50.876;4.736;2024-03-22T00:22:38;12.20;99.90
8820;DHT22;4446;50.876;4.736;2024-03-22T00:25:05;12.20;99.90
8820;DHT22;4446;50.876;4.736;2024-03-22T00:27:32;12.20;99.90
8820;DHT22;4446;50.876;4.736;2024-03-22T00:29:58;12.30;99.90
8820;DHT22;4446;50.876;4.736;2024-03-22T00:32:26;12.20;99.90
8820;DHT22;4446;50.876;4.736;2024-03-22T00:34:52;12.20;99.90
8820;DHT22;4446;50.876;4.736;2024-03-22T00:37:19;12.20;99.90
8820;DHT22;4446;50.876;4.736;2024-03-22T00:39:45;12.20;99.90
8820;DHT22;4446;50.876;4.736;2024-03-22T00:42:12;12.20;99.90
8820;DHT22;4446;50.876;4.736;2024-03-22T00:44:38;12.30;99.90
8820;DHT22;4446;50.876;4.736;2024-03-22T00:47:05;12.30;99.90
8820;DHT22;4446;50.876;4.736;2024-03-22T00:49:33;12.20;99.90
8820;DHT22;4446;50.876;4.736;2024-03-22T00:52:00;12.20;99.90
8820;DHT22;4446;50.876;4.736;2024-03-22T00:54:26;12.20;99.90
8820;DHT22;4446;50.876;4.736;2024-03-22T00:56:53;12.10;99.90
8820;DHT22;4446;50.876;4.736;2024-03-22T00:59:19;12.10;99.90
8820;DHT22;4446;50.876;4.736;2024-03-22T01:01:46;12.20;99.90
8820;DHT22;4446;50.876;4.736;2024-03-22T01:04:12;12.20;99.90
8820;DHT22;4446;50.876;4.736;2024-03-22T01:06:40;12.30;99.90
8820;DHT22;4446;50.876;4.736;2024-03-22T01:09:06;12.30;99.90
8820;DHT22;4446;50.876;4.736;2024-03-22T01:11:33;12.20;99.90
8820;DHT22;4446;50.876;4.736;2024-03-22T01:13:59;12.10;99.90
8820;DHT22;4446;50.876;4.736;2024-03-22T01:16:26;12.10;99.90
8820;DHT22;4446;50.876;4.736;2024-03-22T01:18:52;12.10;99.90
8820;DHT22;4446;50.876;4.736;2024-03-22T01:21:19;12.10;99.90
8820;DHT22;4446;50.876;4.736;2024-03-22T01:23:52;12.10;99.90
8820;DHT22;4446;50.876;4.736;2024-03-22T01:26:19;12.10;99.90
8820;DHT22;4446;50.876;4.736;2024-03-22T01:28:45;12.10;99.90
8820;DHT22;4446;50.876;4.736;2024-03-22T01:31:13;12.10;99.90
8820;DHT22;4446;50.876;4.736;2024-03-22T01:33:39;12.10;99.90
8820;DHT22;4446;50.876;4.736;2024-03-22T01:36:06;12.00;99.90
8820;DHT22;4446;50.876;4.736;2024-03-22T01:38:33;11.90;99.90
8820;DHT22;4446;50.876;4.736;2024-03-22T01:41:02;11.90;99.90
8820;DHT22;4446;50.876;4.736;2024-03-22T01:43:28;11.90;99.90
8820;DHT22;4446;50.876;4.736;2024-03-22T01:45:55;11.80;99.90
8820;DHT22;4446;50.876;4.736;2024-03-22T01:48:21;11.80;99.90
8820;DHT22;4446;50.876;4.736;2024-03-22T01:50:48;11.70;99.90
8820;DHT22;4446;50.876;4.736;2024-03-22T01:53:14;11.70;99.90
8820;DHT22;4446;50.876;4.736;2024-03-22T01:55:40;11.60;99.90
8820;DHT22;4446;50.876;4.736;2024-03-22T01:58:08;11.60;99.90
8820;DHT22;4446;50.876;4.736;2024-03-22T02:00:36;11.50;99.90
8820;DHT22;4446;50.876;4.736;2024-03-22T02:03:02;11.60;99.90
8820;DHT22;4446;50.876;4.736;2024-03-22T02:05:29;11.60;99.90
8820;DHT22;4446;50.876;4.736;2024-03-22T02:07:55;11.60;99.90
8820;DHT22;4446;50.876;4.736;2024-03-22T02:10:22;11.50;99.90
8820;DHT22;4446;50.876;4.736;2024-03-22T02:12:48;11.40;99.90
8820;DHT22;4446;50.876;4.736;2024-03-22T02:15:16;11.30;99.90
8820;DHT22;4446;50.876;4.736;2024-03-22T02:17:42;11.30;99.90
8820;DHT22;4446;50.876;4.736;2024-03-22T02:20:10;11.20;99.90
8820;DHT22;4446;50.876;4.736;2024-03-22T02:22:38;11.20;99.90
8820;DHT22;4446;50.876;4.736;2024-03-22T02:25:07;11.10;99.90
8820;DHT22;4446;50.876;4.736;2024-03-22T02:27:33;11.10;99.90
8820;DHT22;4446;50.876;4.736;2024-03-22T02:30:00;11.10;99.90
8820;DHT22;4446;50.876;4.736;2024-03-22T02:32:27;11.10;99.90
8820;DHT22;4446;50.876;4.736;2024-03-22T02:34:54;11.00;99.90
8820;DHT22;4446;50.876;4.736;2024-03-22T02:37:20;10.90;99.90
8820;DHT22;4446;50.876;4.736;2024-03-22T02:39:47;11.00;99.90
8820;DHT22;4446;50.876;4.736;2024-03-22T02:42:14;11.00;99.90
8820;DHT22;4446;50.876;4.736;2024-03-22T02:44:41;11.00;99.90
8820;DHT22;4446;50.876;4.736;2024-03-22T02:47:08;11.10;99.90
8820;DHT22;4446;50.876;4.736;2024-03-22T02:49:37;11.20;99.90
8820;DHT22;4446;50.876;4.736;2024-03-22T02:52:03;11.20;99.90
8820;DHT22;4446;50.876;4.736;2024-03-22T02:54:30;11.30;99.90
8820;DHT22;4446;50.876;4.736;2024-03-22T02:56:56;11.30;99.90
8820;DHT22;4446;50.876;4.736;2024-03-22T02:59:27;11.30;99.90
8820;DHT22;4446;50.876;4.736;2024-03-22T03:01:53;11.30;99.90
8820;DHT22;4446;50.876;4.736;2024-03-22T03:04:20;11.30;99.90
8820;DHT22;4446;50.876;4.736;2024-03-22T03:06:46;11.30;99.90
8820;DHT22;4446;50.876;4.736;2024-03-22T03:09:13;11.50;99.90
8820;DHT22;4446;50.876;4.736;2024-03-22T03:11:39;11.40;99.90
8820;DHT22;4446;50.876;4.736;2024-03-22T03:14:06;11.40;99.90
8820;DHT22;4446;50.876;4.736;2024-03-22T03:16:34;11.40;99.90
8820;DHT22;4446;50.876;4.736;2024-03-22T03:19:01;11.40;99.90
8820;DHT22;4446;50.876;4.736;2024-03-22T03:21:27;11.50;99.90
8820;DHT22;4446;50.876;4.736;2024-03-22T03:23:54;11.50;99.90
8820;DHT22;4446;50.876;4.736;2024-03-22T03:26:20;11.50;99.90
8820;DHT22;4446;50.876;4.736;2024-03-22T03:28:47;11.50;99.90
8820;DHT22;4446;50.876;4.736;2024-03-22T03:31:13;11.50;99.90
8820;DHT22;4446;50.876;4.736;2024-03-22T03:33:41;11.50;99.90
8820;DHT22;4446;50.876;4.736;2024-03-22T03:36:07;11.40;99.90
8820;DHT22;4446;50.876;4.736;2024-03-22T03:38:34;11.40;99.90
8820;DHT22;4446;50.876;4.736;2024-03-22T03:41:03;11.40;99.90
8820;DHT22;4446;50.876;4.736;2024-03-22T03:43:30;11.40;99.90
8820;DHT22;4446;50.876;4.736;2024-03-22T03:45:56;11.40;99.90
8820;DHT22;4446;50.876;4.736;2024-03-22T03:48:23;11.40;99.90
8820;DHT22;4446;50.876;4.736;2024-03-22T03:50:54;11.50;99.90
8820;DHT22;4446;50.876;4.736;2024-03-22T03:53:26;11.50;99.90
8820;DHT22;4446;50.876;4.736;2024-03-22T03:55:52;11.50;99.90
8820;DHT22;4446;50.876;4.736;2024-03-22T03:58:19;11.40;99.90
8820;DHT22;4446;50.876;4.736;2024-03-22T04:00:45;11.40;99.90
8820;DHT22;4446;50.876;4.736;2024-03-22T04:03:12;11.50;99.90
8820;DHT22;4446;50.876;4.736;2024-03-22T04:05:38;11.50;99.90
8820;DHT22;4446;50.876;4.736;2024-03-22T04:08:07;11.50;99.90
8820;DHT22;4446;50.876;4.736;2024-03-22T04:10:33;11.50;99.90
8820;DHT22;4446;50.876;4.736;2024-03-22T04:13:00;11.60;99.90
8820;DHT22;4446;50.876;4.736;2024-03-22T04:15:26;11.50;99.90
8820;DHT22;4446;50.876;4.736;2024-03-22T04:17:54;11.50;99.90
8820;DHT22;4446;50.876;4.736;2024-03-22T04:20:20;11.50;99.90
8820;DHT22;4446;50.876;4.736;2024-03-22T04:22:47;11.50;99.90
8820;DHT22;4446;50.876;4.736;2024-03-22T04:25:16;11.50;99.90
8820;DHT22;4446;50.876;4.736;2024-03-22T04:27:43;11.50;99.90
8820;DHT22;4446;50.876;4.736;2024-03-22T04:30:10;11.50;99.90
8820;DHT22;4446;50.876;4.736;2024-03-22T04:32:37;11.40;99.90
8820;DHT22;4446;50.876;4.736;2024-03-22T04:35:04;11.40;99.90
8820;DHT22;4446;50.876;4.736;2024-03-22T04:37:31;11.50;99.90
8820;DHT22;4446;50.876;4.736;2024-03-22T04:39:58;11.50;99.90
8820;DHT22;4446;50.876;4.736;2024-03-22T04:42:26;11.50;99.90
8820;DHT22;4446;50.876;4.736;2024-03-22T04:44:53;11.50;99.90
8820;DHT22;4446;50.876;4.736;2024-03-22T04:47:21;11.50;99.90
8820;DHT22;4446;50.876;4.736;2024-03-22T04:49:47;11.60;99.90
8820;DHT22;4446;50.876;4.736;2024-03-22T04:52:14;11.50;99.90
8820;DHT22;4446;50.876;4.736;2024-03-22T04:54:41;11.50;99.90
8820;DHT22;4446;50.876;4.736;2024-03-22T04:57:07;11.50;99.90
8820;DHT22;4446;50.876;4.736;2024-03-22T04:59:35;11.50;99.90
8820;DHT22;4446;50.876;4.736;2024-03-22T05:02:01;11.50;99.90
8820;DHT22;4446;50.876;4.736;2024-03-22T05:04:28;11.60;99.90
8820;DHT22;4446;50.876;4.736;2024-03-22T05:06:54;11.50;99.90
8820;DHT22;4446;50.876;4.736;2024-03-22T05:09:21;11.60;99.90
8820;DHT22;4446;50.876;4.736;2024-03-22T05:11:47;11.60;99.90
8820;DHT22;4446;50.876;4.736;2024-03-22T05:14:16;11.50;99.90
8820;DHT22;4446;50.876;4.736;2024-03-22T05:16:43;11.50;99.90
8820;DHT22;4446;50.876;4.736;2024-03-22T05:19:10;11.60;99.90
8820;DHT22;4446;50.876;4.736;2024-03-22T05:21:36;11.60;99.90
8820;DHT22;4446;50.876;4.736;2024-03-22T05:24:04;11.60;99.90
8820;DHT22;4446;50.876;4.736;2024-03-22T05:26:30;11.60;99.90
8820;DHT22;4446;50.876;4.736;2024-03-22T05:29:01;11.60;99.90
8820;DHT22;4446;50.876;4.736;2024-03-22T05:31:28;11.50;99.90
8820;DHT22;4446;50.876;4.736;2024-03-22T05:33:56;11.50;99.90
8820;DHT22;4446;50.876;4.736;2024-03-22T05:36:22;11.50;99.90
8820;DHT22;4446;50.876;4.736;2024-03-22T05:38:49;11.50;99.90
8820;DHT22;4446;50.876;4.736;2024-03-22T05:41:15;11.50;99.90
8820;DHT22;4446;50.876;4.736;2024-03-22T05:43:42;11.50;99.90
8820;DHT22;4446;50.876;4.736;2024-03-22T05:46:08;11.50;99.90
8820;DHT22;4446;50.876;4.736;2024-03-22T05:48:35;11.50;99.90
8820;DHT22;4446;50.876;4.736;2024-03-22T05:51:03;11.50;99.90
8820;DHT22;4446;50.876;4.736;2024-03-22T05:53:30;11.50;99.90
8820;DHT22;4446;50.876;4.736;2024-03-22T05:55:56;11.50;99.90
8820;DHT22;4446;50.876;4.736;2024-03-22T05:58:23;11.40;99.90
8820;DHT22;4446;50.876;4.736;2024-03-22T06:00:49;11.40;99.90
8820;DHT22;4446;50.876;4.736;2024-03-22T06:03:19;11.40;99.90
8820;DHT22;4446;50.876;4.736;2024-03-22T06:05:45;11.40;99.90
8820;DHT22;4446;50.876;4.736;2024-03-22T06:08:14;11.40;99.90
8820;DHT22;4446;50.876;4.736;2024-03-22T06:10:46;11.40;99.90
8820;DHT22;4446;50.876;4.736;2024-03-22T06:13:16;11.40;99.90
8820;DHT22;4446;50.876;4.736;2024-03-22T06:15:43;11.40;99.90
8820;DHT22;4446;50.876;4.736;2024-03-22T06:18:11;11.40;99.90
8820;DHT22;4446;50.876;4.736;2024-03-22T06:20:37;11.50;99.90
8820;DHT22;4446;50.876;4.736;2024-03-22T06:23:04;11.60;99.90
8820;DHT22;4446;50.876;4.736;2024-03-22T06:25:31;11.60;99.90
8820;DHT22;4446;50.876;4.736;2024-03-22T06:27:58;11.60;99.90
8820;DHT22;4446;50.876;4.736;2024-03-22T06:30:24;11.60;99.90
8820;DHT22;4446;50.876;4.736;2024-03-22T06:32:52;11.70;99.90
8820;DHT22;4446;50.876;4.736;2024-03-22T06:35:18;11.70;99.90
8820;DHT22;4446;50.876;4.736;2024-03-22T06:37:45;11.70;99.90
8820;DHT22;4446;50.876;4.736;2024-03-22T06:40:11;11.70;99.90
8820;DHT22;4446;50.876;4.736;2024-03-22T06:42:40;11.70;99.90
8820;DHT22;4446;50.876;4.736;2024-03-22T06:45:07;11.70;99.90
8820;DHT22;4446;50.876;4.736;2024-03-22T06:47:34;11.60;99.90
8820;DHT22;4446;50.876;4.736;2024-03-22T06:50:00;11.60;99.90
8820;DHT22;4446;50.876;4.736;2024-03-22T06:52:27;11.70;99.90
8820;DHT22;4446;50.876;4.736;2024-03-22T06:54:53;11.70;99.90
8820;DHT22;4446;50.876;4.736;2024-03-22T06:57:20;11.70;99.90
8820;DHT22;4446;50.876;4.736;2024-03-22T06:59:47;11.70;99.90
8820;DHT22;4446;50.876;4.736;2024-03-22T07:02:14;11.70;99.90
8820;DHT22;4446;50.876;4.736;2024-03-22T07:04:40;11.60;99.90
8820;DHT22;4446;50.876;4.736;2024-03-22T07:07:07;11.70;99.90
8820;DHT22;4446;50.876;4.736;2024-03-22T07:09:33;11.80;99.90
8820;DHT22;4446;50.876;4.736;2024-03-22T07:12:01;11.80;99.90
8820;DHT22;4446;50.876;4.736;2024-03-22T07:14:27;11.90;99.90
8820;DHT22;4446;50.876;4.736;2024-03-22T07:16:56;11.90;99.90
8820;DHT22;4446;50.876;4.736;2024-03-22T07:19:22;11.90;99.90
8820;DHT22;4446;50.876;4.736;2024-03-22T07:21:49;12.00;99.90
8820;DHT22;4446;50.876;4.736;2024-03-22T07:24:15;11.90;99.90
8820;DHT22;4446;50.876;4.736;2024-03-22T07:26:43;11.90;99.90
8820;DHT22;4446;50.876;4.736;2024-03-22T07:29:09;11.80;99.90
8820;DHT22;4446;50.876;4.736;2024-03-22T07:31:36;11.70;99.90
8820;DHT22;4446;50.876;4.736;2024-03-22T07:34:03;11.60;99.90
8820;DHT22;4446;50.876;4.736;2024-03-22T07:36:30;11.60;99.90
8820;DHT22;4446;50.876;4.736;2024-03-22T07:38:56;11.60;99.90
8820;DHT22;4446;50.876;4.736;2024-03-22T07:41:24;11.60;99.90
8820;DHT22;4446;50.876;4.736;2024-03-22T07:43:50;11.60;99.90
8820;DHT22;4446;50.876;4.736;2024-03-22T07:46:17;11.70;99.90
8820;DHT22;4446;50.876;4.736;2024-03-22T07:48:43;11.70;99.90
8820;DHT22;4446;50.876;4.736;2024-03-22T07:51:11;11.80;99.90
8820;DHT22;4446;50.876;4.736;2024-03-22T07:53:37;11.70;99.90
8820;DHT22;4446;50.876;4.736;2024-03-22T07:56:04;11.80;99.90
8820;DHT22;4446;50.876;4.736;2024-03-22T07:58:30;11.70;99.90
8820;DHT22;4446;50.876;4.736;2024-03-22T08:00:57;11.70;99.90
8820;DHT22;4446;50.876;4.736;2024-03-22T08:03:23;11.80;99.90
8820;DHT22;4446;50.876;4.736;2024-03-22T08:05:50;11.80;99.90
8820;DHT22;4446;50.876;4.736;2024-03-22T08:08:18;11.90;99.90
8820;DHT22;4446;50.876;4.736;2024-03-22T08:10:45;11.80;99.90
8820;DHT22;4446;50.876;4.736;2024-03-22T08:13:11;11.80;99.90
8820;DHT22;4446;50.876;4.736;2024-03-22T08:15:38;11.80;99.90
8820;DHT22;4446;50.876;4.736;2024-03-22T08:18:04;11.90;99.90
8820;DHT22;4446;50.876;4.736;2024-03-22T08:20:31;12.00;99.90
8820;DHT22;4446;50.876;4.736;2024-03-22T08:22:59;12.10;99.90
8820;DHT22;4446;50.876;4.736;2024-03-22T08:25:27;12.10;99.90
8820;DHT22;4446;50.876;4.736;2024-03-22T08:27:54;12.10;99.90
8820;DHT22;4446;50.876;4.736;2024-03-22T08:30:21;12.20;99.90
8820;DHT22;4446;50.876;4.736;2024-03-22T08:32:47;12.20;99.90
8820;DHT22;4446;50.876;4.736;2024-03-22T08:35:15;12.10;99.90
8820;DHT22;4446;50.876;4.736;2024-03-22T08:37:41;12.20;99.90
8820;DHT22;4446;50.876;4.736;2024-03-22T08:40:09;12.30;99.90
8820;DHT22;4446;50.876;4.736;2024-03-22T08:42:37;12.30;99.90
8820;DHT22;4446;50.876;4.736;2024-03-22T08:45:05;12.30;99.90
8820;DHT22;4446;50.876;4.736;2024-03-22T08:47:31;12.30;99.90
8820;DHT22;4446;50.876;4.736;2024-03-22T08:49:59;12.30;99.90
8820;DHT22;4446;50.876;4.736;2024-03-22T08:52:25;12.40;99.90
8820;DHT22;4446;50.876;4.736;2024-03-22T08:54:52;12.50;99.90
8820;DHT22;4446;50.876;4.736;2024-03-22T08:57:18;12.50;99.90
8820;DHT22;4446;50.876;4.736;2024-03-22T08:59:47;12.40;99.90
8820;DHT22;4446;50.876;4.736;2024-03-22T09:02:13;12.50;99.90
8820;DHT22;4446;50.876;4.736;2024-03-22T09:04:42;12.70;99.90
8820;DHT22;4446;50.876;4.736;2024-03-22T09:07:08;12.90;99.90
8820;DHT22;4446;50.876;4.736;2024-03-22T09:09:35;12.90;99.90
8820;DHT22;4446;50.876;4.736;2024-03-22T09:12:01;12.90;99.90
8820;DHT22;4446;50.876;4.736;2024-03-22T09:14:28;13.00;99.90
8820;DHT22;4446;50.876;4.736;2024-03-22T09:16:55;12.80;99.90
8820;DHT22;4446;50.876;4.736;2024-03-22T09:19:22;13.00;99.90
8820;DHT22;4446;50.876;4.736;2024-03-22T09:21:48;13.00;99.90
8820;DHT22;4446;50.876;4.736;2024-03-22T09:24:15;13.10;99.90
8820;DHT22;4446;50.876;4.736;2024-03-22T09:26:41;13.10;99.90
8820;DHT22;4446;50.876;4.736;2024-03-22T09:29:08;13.10;99.90
8820;DHT22;4446;50.876;4.736;2024-03-22T09:31:34;12.90;99.90
8820;DHT22;4446;50.876;4.736;2024-03-22T09:34:02;13.00;99.90
8820;DHT22;4446;50.876;4.736;2024-03-22T09:36:28;13.10;99.90
8820;DHT22;4446;50.876;4.736;2024-03-22T09:39:00;13.00;99.90
8820;DHT22;4446;50.876;4.736;2024-03-22T09:41:26;12.90;99.90
8820;DHT22;4446;50.876;4.736;2024-03-22T09:43:58;13.00;99.90
8820;DHT22;4446;50.876;4.736;2024-03-22T09:46:25;13.10;99.90
8820;DHT22;4446;50.876;4.736;2024-03-22T09:48:54;13.10;99.90
8820;DHT22;4446;50.876;4.736;2024-03-22T09:51:21;13.20;99.90
8820;DHT22;4446;50.876;4.736;2024-03-22T09:53:48;13.30;99.90
8820;DHT22;4446;50.876;4.736;2024-03-22T09:56:15;13.30;99.90
8820;DHT22;4446;50.876;4.736;2024-03-22T09:58:45;13.40;99.90
8820;DHT22;4446;50.876;4.736;2024-03-22T10:01:12;13.40;99.90
8820;DHT22;4446;50.876;4.736;2024-03-22T10:03:39;13.40;99.90
8820;DHT22;4446;50.876;4.736;2024-03-22T10:06:06;13.30;99.90
8820;DHT22;4446;50.876;4.736;2024-03-22T10:08:33;13.50;99.90
8820;DHT22;4446;50.876;4.736;2024-03-22T10:11:02;13.50;99.90
8820;DHT22;4446;50.876;4.736;2024-03-22T10:13:29;13.50;99.90
8820;DHT22;4446;50.876;4.736;2024-03-22T10:15:56;13.50;99.90
8820;DHT22;4446;50.876;4.736;2024-03-22T10:18:22;13.70;99.90
8820;DHT22;4446;50.876;4.736;2024-03-22T10:20:59;13.70;99.90
8820;DHT22;4446;50.876;4.736;2024-03-22T10:23:25;13.70;99.90
8820;DHT22;4446;50.876;4.736;2024-03-22T10:25:55;13.70;99.90
8820;DHT22;4446;50.876;4.736;2024-03-22T10:28:21;13.70;99.90
8820;DHT22;4446;50.876;4.736;2024-03-22T10:30:50;13.80;99.90
8820;DHT22;4446;50.876;4.736;2024-03-22T10:33:18;13.90;99.90
8820;DHT22;4446;50.876;4.736;2024-03-22T10:35:51;13.90;99.90
8820;DHT22;4446;50.876;4.736;2024-03-22T10:38:18;13.90;99.90
8820;DHT22;4446;50.876;4.736;2024-03-22T10:40:46;13.90;99.90
8820;DHT22;4446;50.876;4.736;2024-03-22T10:43:14;13.80;99.90
8820;DHT22;4446;50.876;4.736;2024-03-22T10:45:42;13.80;99.90
8820;DHT22;4446;50.876;4.736;2024-03-22T10:48:09;13.90;99.90
8820;DHT22;4446;50.876;4.736;2024-03-22T10:50:39;14.00;99.90
8820;DHT22;4446;50.876;4.736;2024-03-22T10:53:09;14.00;99.90
8820;DHT22;4446;50.876;4.736;2024-03-22T10:55:42;14.10;99.90
8820;DHT22;4446;50.876;4.736;2024-03-22T10:58:16;14.10;99.90
8820;DHT22;4446;50.876;4.736;2024-03-22T11:00:43;14.20;99.90
8820;DHT22;4446;50.876;4.736;2024-03-22T11:03:09;14.20;99.90
8820;DHT22;4446;50.876;4.736;2024-03-22T11:05:44;14.30;99.90
8820;DHT22;4446;50.876;4.736;2024-03-22T11:08:11;14.50;99.90
8820;DHT22;4446;50.876;4.736;2024-03-22T11:10:39;14.70;99.90
8820;DHT22;4446;50.876;4.736;2024-03-22T11:13:06;15.00;99.90
8820;DHT22;4446;50.876;4.736;2024-03-22T11:15:35;14.90;99.90
8820;DHT22;4446;50.876;4.736;2024-03-22T11:18:01;14.80;99.90
8820;DHT22;4446;50.876;4.736;2024-03-22T11:20:28;14.80;99.90
8820;DHT22;4446;50.876;4.736;2024-03-22T11:22:56;14.80;99.90
8820;DHT22;4446;50.876;4.736;2024-03-22T11:25:23;14.80;99.90
8820;DHT22;4446;50.876;4.736;2024-03-22T11:27:49;14.80;99.90
8820;DHT22;4446;50.876;4.736;2024-03-22T11:30:16;14.70;99.90
8820;DHT22;4446;50.876;4.736;2024-03-22T11:32:44;14.80;99.90
8820;DHT22;4446;50.876;4.736;2024-03-22T11:35:12;14.90;99.90
8820;DHT22;4446;50.876;4.736;2024-03-22T11:37:38;14.90;99.90
8820;DHT22;4446;50.876;4.736;2024-03-22T11:40:08;14.80;99.90
8820;DHT22;4446;50.876;4.736;2024-03-22T11:42:36;14.90;99.90
8820;DHT22;4446;50.876;4.736;2024-03-22T11:45:05;14.80;99.90
8820;DHT22;4446;50.876;4.736;2024-03-22T11:47:33;14.70;99.90
8820;DHT22;4446;50.876;4.736;2024-03-22T11:50:02;14.50;99.90
8820;DHT22;4446;50.876;4.736;2024-03-22T11:52:28;14.30;99.90
8820;DHT22;4446;50.876;4.736;2024-03-22T11:54:55;14.10;99.90
8820;DHT22;4446;50.876;4.736;2024-03-22T11:57:22;13.90;99.90
8820;DHT22;4446;50.876;4.736;2024-03-22T11:59:50;13.80;99.90
8820;DHT22;4446;50.876;4.736;2024-03-22T12:02:17;13.80;99.90
8820;DHT22;4446;50.876;4.736;2024-03-22T12:04:46;13.80;99.90
8820;DHT22;4446;50.876;4.736;2024-03-22T12:07:15;13.90;99.90
8820;DHT22;4446;50.876;4.736;2024-03-22T12:09:42;13.80;99.90
8820;DHT22;4446;50.876;4.736;2024-03-22T12:12:10;13.80;99.90
8820;DHT22;4446;50.876;4.736;2024-03-22T12:14:37;13.80;99.90
8820;DHT22;4446;50.876;4.736;2024-03-22T12:17:04;13.80;99.90
8820;DHT22;4446;50.876;4.736;2024-03-22T12:19:31;13.80;99.90
8820;DHT22;4446;50.876;4.736;2024-03-22T12:21:57;13.90;99.90
8820;DHT22;4446;50.876;4.736;2024-03-22T12:24:26;13.90;99.90
8820;DHT22;4446;50.876;4.736;2024-03-22T12:26:54;14.00;99.90
8820;DHT22;4446;50.876;4.736;2024-03-22T12:29:20;13.90;99.90
8820;DHT22;4446;50.876;4.736;2024-03-22T12:31:47;14.00;99.90
8820;DHT22;4446;50.876;4.736;2024-03-22T12:34:14;14.10;99.90
8820;DHT22;4446;50.876;4.736;2024-03-22T12:36:42;14.10;99.90
8820;DHT22;4446;50.876;4.736;2024-03-22T12:39:08;14.00;99.90
8820;DHT22;4446;50.876;4.736;2024-03-22T12:41:37;13.90;99.90
8820;DHT22;4446;50.876;4.736;2024-03-22T12:44:03;13.80;99.90
8820;DHT22;4446;50.876;4.736;2024-03-22T12:46:30;13.60;99.90
8820;DHT22;4446;50.876;4.736;2024-03-22T12:48:56;13.50;99.90
8820;DHT22;4446;50.876;4.736;2024-03-22T12:51:23;13.50;99.90
8820;DHT22;4446;50.876;4.736;2024-03-22T12:53:49;13.40;99.90
8820;DHT22;4446;50.876;4.736;2024-03-22T12:56:16;13.40;99.90
8820;DHT22;4446;50.876;4.736;2024-03-22T12:58:44;13.30;99.90
8820;DHT22;4446;50.876;4.736;2024-03-22T13:01:11;13.20;99.90
8820;DHT22;4446;50.876;4.736;2024-03-22T13:03:37;13.10;99.90
8820;DHT22;4446;50.876;4.736;2024-03-22T13:06:04;13.00;99.90
8820;DHT22;4446;50.876;4.736;2024-03-22T13:08:31;13.00;99.90
8820;DHT22;4446;50.876;4.736;2024-03-22T13:10:58;13.00;99.90
8820;DHT22;4446;50.876;4.736;2024-03-22T13:13:24;13.00;99.90
8820;DHT22;4446;50.876;4.736;2024-03-22T13:15:52;13.10;99.90
8820;DHT22;4446;50.876;4.736;2024-03-22T13:18:18;13.10;99.90
8820;DHT22;4446;50.876;4.736;2024-03-22T13:20:47;13.10;99.90
8820;DHT22;4446;50.876;4.736;2024-03-22T13:23:13;13.10;99.90
8820;DHT22;4446;50.876;4.736;2024-03-22T13:25:40;13.00;99.90
8820;DHT22;4446;50.876;4.736;2024-03-22T13:28:06;13.10;99.90
8820;DHT22;4446;50.876;4.736;2024-03-22T13:30:33;13.10;99.90
8820;DHT22;4446;50.876;4.736;2024-03-22T13:33:02;13.10;99.90
8820;DHT22;4446;50.876;4.736;2024-03-22T13:35:29;13.00;99.90
8820;DHT22;4446;50.876;4.736;2024-03-22T13:37:55;13.00;99.90
8820;DHT22;4446;50.876;4.736;2024-03-22T13:40:22;12.90;99.90
8820;DHT22;4446;50.876;4.736;2024-03-22T13:42:48;12.90;99.90
8820;DHT22;4446;50.876;4.736;2024-03-22T13:45:19;12.90;99.90
8820;DHT22;4446;50.876;4.736;2024-03-22T13:47:45;12.70;99.90
8820;DHT22;4446;50.876;4.736;2024-03-22T13:50:14;12.70;99.90
8820;DHT22;4446;50.876;4.736;2024-03-22T13:52:41;12.70;99.90
8820;DHT22;4446;50.876;4.736;2024-03-22T13:55:07;12.70;99.90
8820;DHT22;4446;50.876;4.736;2024-03-22T13:57:34;12.70;99.90
8820;DHT22;4446;50.876;4.736;2024-03-22T14:00:00;12.70;99.90
8820;DHT22;4446;50.876;4.736;2024-03-22T14:02:32;12.80;99.90
8820;DHT22;4446;50.876;4.736;2024-03-22T14:04:58;12.80;99.90
8820;DHT22;4446;50.876;4.736;2024-03-22T14:07:27;12.80;99.90
8820;DHT22;4446;50.876;4.736;2024-03-22T14:09:53;12.80;99.90
8820;DHT22;4446;50.876;4.736;2024-03-22T14:12:20;12.80;99.90
8820;DHT22;4446;50.876;4.736;2024-03-22T14:14:46;12.80;99.90
8820;DHT22;4446;50.876;4.736;2024-03-22T14:17:13;12.70;99.90
8820;DHT22;4446;50.876;4.736;2024-03-22T14:19:39;12.70;99.90
8820;DHT22;4446;50.876;4.736;2024-03-22T14:22:06;12.70;99.90
8820;DHT22;4446;50.876;4.736;2024-03-22T14:24:33;12.70;99.90
8820;DHT22;4446;50.876;4.736;2024-03-22T14:27:00;12.70;99.90
8820;DHT22;4446;50.876;4.736;2024-03-22T14:29:27;12.60;99.90
8820;DHT22;4446;50.876;4.736;2024-03-22T14:31:54;12.60;99.90
8820;DHT22;4446;50.876;4.736;2024-03-22T14:34:21;12.50;99.90
8820;DHT22;4446;50.876;4.736;2024-03-22T14:36:48;12.40;99.90
8820;DHT22;4446;50.876;4.736;2024-03-22T14:39:14;12.30;99.90
8820;DHT22;4446;50.876;4.736;2024-03-22T14:41:42;12.20;99.90
8820;DHT22;4446;50.876;4.736;2024-03-22T14:44:08;12.10;99.90
8820;DHT22;4446;50.876;4.736;2024-03-22T14:46:35;12.00;99.90
8820;DHT22;4446;50.876;4.736;2024-03-22T14:49:01;12.00;99.90
8820;DHT22;4446;50.876;4.736;2024-03-22T14:51:28;12.00;99.90
8820;DHT22;4446;50.876;4.736;2024-03-22T14:53:54;12.00;99.90
8820;DHT22;4446;50.876;4.736;2024-03-22T14:56:21;12.00;99.90
8820;DHT22;4446;50.876;4.736;2024-03-22T14:58:50;11.90;99.90
8820;DHT22;4446;50.876;4.736;2024-03-22T15:01:17;12.00;99.90
8820;DHT22;4446;50.876;4.736;2024-03-22T15:03:44;12.00;99.90
8820;DHT22;4446;50.876;4.736;2024-03-22T15:06:12;12.00;99.90
8820;DHT22;4446;50.876;4.736;2024-03-22T15:08:38;12.10;99.90
8820;DHT22;4446;50.876;4.736;2024-03-22T15:11:05;12.20;99.90
8820;DHT22;4446;50.876;4.736;2024-03-22T15:13:31;12.20;99.90
8820;DHT22;4446;50.876;4.736;2024-03-22T15:16:00;12.30;99.90
8820;DHT22;4446;50.876;4.736;2024-03-22T15:18:26;12.40;99.90
8820;DHT22;4446;50.876;4.736;2024-03-22T15:20:53;12.30;99.90
8820;DHT22;4446;50.876;4.736;2024-03-22T15:23:19;12.30;99.90
8820;DHT22;4446;50.876;4.736;2024-03-22T15:25:47;12.40;99.90
8820;DHT22;4446;50.876;4.736;2024-03-22T15:28:14;12.30;99.90
8820;DHT22;4446;50.876;4.736;2024-03-22T15:30:42;12.30;99.90
8820;DHT22;4446;50.876;4.736;2024-03-22T15:33:11;12.30;99.90
8820;DHT22;4446;50.876;4.736;2024-03-22T15:35:38;12.30;99.90
8820;DHT22;4446;50.876;4.736;2024-03-22T15:38:05;12.20;99.90
8820;DHT22;4446;50.876;4.736;2024-03-22T15:40:32;12.00;99.90
8820;DHT22;4446;50.876;4.736;2024-03-22T15:42:59;12.00;99.90
8820;DHT22;4446;50.876;4.736;2024-03-22T15:45:26;12.00;99.90
8820;DHT22;4446;50.876;4.736;2024-03-22T15:47:52;11.90;99.90
8820;DHT22;4446;50.876;4.736;2024-03-22T15:50:21;11.70;99.90
8820;DHT22;4446;50.876;4.736;2024-03-22T15:52:48;11.50;99.90
8820;DHT22;4446;50.876;4.736;2024-03-22T15:55:15;11.40;99.90
8820;DHT22;4446;50.876;4.736;2024-03-22T15:57:42;11.30;99.90
8820;DHT22;4446;50.876;4.736;2024-03-22T16:00:09;11.20;99.90